Kitzville, Minnesota
Current Conditions -  °F | °C
As of 8:53 AM on Wednesday 22 Oct 2014 (Local Time) from KHIB Reporting Station
Clear Clear  
Wind Chill: 33°   Ceiling: Unl
Heat Index: 40°   Visibility: 10mi
Dew Point: 35°   Wind: 10mph
Humidity: 83%   Direction: 150°SSE
Pressure: 30.15"   Gusts: NA
Location:  47.4158°N, 93.0053°W
Report Text: KHIB 221353Z AUTO 15009KT 10SM CLR 04/02 A3015 RMK AO2 SLP224 T00440017
Loading
Personal Weather Stations






























Interactive Weather Map
Tropical Storm Tracking
New forecast layout! Learn more

10-Day Weather Forecast

Advertisements
Track Severe Weather on mobile